sensor_id;sensor_type;location;lat;lon;timestamp;P1;durP1;ratioP1;P2;durP2;ratioP2
19907;SDS011;10116;53.112;7.356;2022-08-26T00:02:14;4.70;;;4.30;;
19907;SDS011;10116;53.112;7.356;2022-08-26T00:04:39;4.40;;;4.10;;
19907;SDS011;10116;53.112;7.356;2022-08-26T00:07:05;4.70;;;4.40;;
19907;SDS011;10116;53.112;7.356;2022-08-26T00:09:31;4.63;;;4.33;;
19907;SDS011;10116;53.112;7.356;2022-08-26T00:11:57;4.63;;;4.33;;
19907;SDS011;10116;53.112;7.356;2022-08-26T00:14:23;4.33;;;4.03;;
19907;SDS011;10116;53.112;7.356;2022-08-26T00:16:49;4.00;;;3.70;;
19907;SDS011;10116;53.112;7.356;2022-08-26T00:19:16;5.07;;;4.67;;
19907;SDS011;10116;53.112;7.356;2022-08-26T00:21:44;4.67;;;4.37;;
19907;SDS011;10116;53.112;7.356;2022-08-26T00:24:10;7.83;;;4.03;;
19907;SDS011;10116;53.112;7.356;2022-08-26T00:26:37;4.30;;;4.00;;
19907;SDS011;10116;53.112;7.356;2022-08-26T00:29:04;4.97;;;4.57;;
19907;SDS011;10116;53.112;7.356;2022-08-26T00:31:29;4.50;;;4.10;;
19907;SDS011;10116;53.112;7.356;2022-08-26T00:33:55;4.82;;;4.43;;
19907;SDS011;10116;53.112;7.356;2022-08-26T00:36:21;4.90;;;4.18;;
19907;SDS011;10116;53.112;7.356;2022-08-26T00:38:47;4.30;;;4.10;;
19907;SDS011;10116;53.112;7.356;2022-08-26T00:41:13;5.40;;;4.60;;
19907;SDS011;10116;53.112;7.356;2022-08-26T00:43:39;5.03;;;4.67;;
19907;SDS011;10116;53.112;7.356;2022-08-26T00:48:46;4.87;;;4.40;;
19907;SDS011;10116;53.112;7.356;2022-08-26T00:51:15;4.80;;;4.50;;
19907;SDS011;10116;53.112;7.356;2022-08-26T00:53:51;5.00;;;4.60;;
19907;SDS011;10116;53.112;7.356;2022-08-26T00:57:04;4.63;;;4.23;;
19907;SDS011;10116;53.112;7.356;2022-08-26T00:59:17;4.22;;;3.92;;
19907;SDS011;10116;53.112;7.356;2022-08-26T01:01:44;5.03;;;4.67;;
19907;SDS011;10116;53.112;7.356;2022-08-26T01:04:10;4.15;;;3.90;;
19907;SDS011;10116;53.112;7.356;2022-08-26T01:06:38;4.37;;;4.07;;
19907;SDS011;10116;53.112;7.356;2022-08-26T01:09:06;4.27;;;4.07;;
19907;SDS011;10116;53.112;7.356;2022-08-26T01:11:32;4.63;;;4.23;;
19907;SDS011;10116;53.112;7.356;2022-08-26T01:13:58;4.87;;;4.43;;
19907;SDS011;10116;53.112;7.356;2022-08-26T01:16:27;4.47;;;4.23;;
19907;SDS011;10116;53.112;7.356;2022-08-26T01:18:54;4.50;;;4.20;;
19907;SDS011;10116;53.112;7.356;2022-08-26T01:21:28;4.53;;;4.23;;
19907;SDS011;10116;53.112;7.356;2022-08-26T01:24:07;3.63;;;3.43;;
19907;SDS011;10116;53.112;7.356;2022-08-26T01:26:34;4.40;;;4.00;;
19907;SDS011;10116;53.112;7.356;2022-08-26T01:29:04;5.05;;;4.43;;
19907;SDS011;10116;53.112;7.356;2022-08-26T01:31:34;4.40;;;4.10;;
19907;SDS011;10116;53.112;7.356;2022-08-26T01:36:35;5.03;;;4.63;;
19907;SDS011;10116;53.112;7.356;2022-08-26T01:39:03;4.00;;;3.80;;
19907;SDS011;10116;53.112;7.356;2022-08-26T01:41:30;4.40;;;4.10;;
19907;SDS011;10116;53.112;7.356;2022-08-26T01:43:56;5.40;;;4.90;;
19907;SDS011;10116;53.112;7.356;2022-08-26T01:46:22;4.70;;;4.40;;
19907;SDS011;10116;53.112;7.356;2022-08-26T01:48:50;4.53;;;4.25;;
19907;SDS011;10116;53.112;7.356;2022-08-26T01:51:19;4.43;;;4.13;;
19907;SDS011;10116;53.112;7.356;2022-08-26T01:53:45;5.00;;;4.70;;
19907;SDS011;10116;53.112;7.356;2022-08-26T01:56:11;4.63;;;4.40;;
19907;SDS011;10116;53.112;7.356;2022-08-26T01:58:46;4.70;;;4.30;;
19907;SDS011;10116;53.112;7.356;2022-08-26T02:01:16;4.30;;;4.10;;
19907;SDS011;10116;53.112;7.356;2022-08-26T02:03:55;5.32;;;5.03;;
19907;SDS011;10116;53.112;7.356;2022-08-26T02:06:43;4.93;;;4.63;;
19907;SDS011;10116;53.112;7.356;2022-08-26T02:09:10;4.93;;;4.43;;
19907;SDS011;10116;53.112;7.356;2022-08-26T02:11:36;5.15;;;4.30;;
19907;SDS011;10116;53.112;7.356;2022-08-26T02:14:04;4.70;;;4.40;;
19907;SDS011;10116;53.112;7.356;2022-08-26T02:16:35;4.90;;;4.50;;
19907;SDS011;10116;53.112;7.356;2022-08-26T02:19:05;6.57;;;4.10;;
19907;SDS011;10116;53.112;7.356;2022-08-26T02:21:44;4.43;;;4.13;;
19907;SDS011;10116;53.112;7.356;2022-08-26T02:24:14;4.73;;;4.43;;
19907;SDS011;10116;53.112;7.356;2022-08-26T02:26:42;4.73;;;4.43;;
19907;SDS011;10116;53.112;7.356;2022-08-26T02:29:12;5.33;;;5.03;;
19907;SDS011;10116;53.112;7.356;2022-08-26T02:31:47;5.10;;;4.70;;
19907;SDS011;10116;53.112;7.356;2022-08-26T02:34:14;4.73;;;4.43;;
19907;SDS011;10116;53.112;7.356;2022-08-26T02:36:43;4.83;;;4.53;;
19907;SDS011;10116;53.112;7.356;2022-08-26T02:39:09;4.30;;;4.07;;
19907;SDS011;10116;53.112;7.356;2022-08-26T02:41:35;4.80;;;4.40;;
19907;SDS011;10116;53.112;7.356;2022-08-26T02:44:02;5.53;;;5.18;;
19907;SDS011;10116;53.112;7.356;2022-08-26T02:46:28;6.00;;;5.40;;
19907;SDS011;10116;53.112;7.356;2022-08-26T02:48:55;4.70;;;4.43;;
19907;SDS011;10116;53.112;7.356;2022-08-26T02:51:21;5.00;;;4.60;;
19907;SDS011;10116;53.112;7.356;2022-08-26T02:53:46;4.70;;;4.30;;
19907;SDS011;10116;53.112;7.356;2022-08-26T02:56:12;5.30;;;4.90;;
19907;SDS011;10116;53.112;7.356;2022-08-26T02:58:38;5.00;;;4.60;;
19907;SDS011;10116;53.112;7.356;2022-08-26T03:01:04;3.73;;;3.60;;
19907;SDS011;10116;53.112;7.356;2022-08-26T03:03:30;5.90;;;4.70;;
19907;SDS011;10116;53.112;7.356;2022-08-26T03:05:55;4.53;;;4.23;;
19907;SDS011;10116;53.112;7.356;2022-08-26T03:08:21;4.80;;;4.50;;
19907;SDS011;10116;53.112;7.356;2022-08-26T03:10:47;5.30;;;4.90;;
19907;SDS011;10116;53.112;7.356;2022-08-26T03:13:13;5.13;;;4.60;;
19907;SDS011;10116;53.112;7.356;2022-08-26T03:15:39;4.93;;;4.60;;
19907;SDS011;10116;53.112;7.356;2022-08-26T03:18:05;4.68;;;4.38;;
19907;SDS011;10116;53.112;7.356;2022-08-26T03:20:31;4.00;;;3.80;;
19907;SDS011;10116;53.112;7.356;2022-08-26T03:22:57;4.70;;;4.30;;
19907;SDS011;10116;53.112;7.356;2022-08-26T03:25:23;4.37;;;4.07;;
19907;SDS011;10116;53.112;7.356;2022-08-26T03:27:50;4.80;;;4.40;;
19907;SDS011;10116;53.112;7.356;2022-08-26T03:30:16;4.73;;;4.33;;
19907;SDS011;10116;53.112;7.356;2022-08-26T03:33:00;4.63;;;4.33;;
19907;SDS011;10116;53.112;7.356;2022-08-26T03:35:26;5.07;;;4.67;;
19907;SDS011;10116;53.112;7.356;2022-08-26T03:37:52;4.97;;;4.67;;
19907;SDS011;10116;53.112;7.356;2022-08-26T03:40:19;4.78;;;4.40;;
19907;SDS011;10116;53.112;7.356;2022-08-26T03:42:45;4.20;;;3.97;;
19907;SDS011;10116;53.112;7.356;2022-08-26T03:45:12;4.75;;;4.45;;
19907;SDS011;10116;53.112;7.356;2022-08-26T03:47:39;4.70;;;4.30;;
19907;SDS011;10116;53.112;7.356;2022-08-26T03:50:06;5.32;;;4.82;;
19907;SDS011;10116;53.112;7.356;2022-08-26T03:52:33;4.70;;;4.37;;
19907;SDS011;10116;53.112;7.356;2022-08-26T03:54:59;4.60;;;4.30;;
19907;SDS011;10116;53.112;7.356;2022-08-26T03:57:24;4.70;;;4.40;;
19907;SDS011;10116;53.112;7.356;2022-08-26T03:59:50;4.13;;;3.90;;
19907;SDS011;10116;53.112;7.356;2022-08-26T04:02:16;4.50;;;4.20;;
19907;SDS011;10116;53.112;7.356;2022-08-26T04:04:42;4.70;;;4.40;;
19907;SDS011;10116;53.112;7.356;2022-08-26T04:07:07;5.00;;;4.70;;
19907;SDS011;10116;53.112;7.356;2022-08-26T04:09:33;4.65;;;4.35;;
19907;SDS011;10116;53.112;7.356;2022-08-26T04:11:59;4.83;;;4.53;;
19907;SDS011;10116;53.112;7.356;2022-08-26T04:14:25;5.07;;;4.68;;
19907;SDS011;10116;53.112;7.356;2022-08-26T04:16:52;5.22;;;4.82;;
19907;SDS011;10116;53.112;7.356;2022-08-26T04:19:19;4.63;;;4.32;;
19907;SDS011;10116;53.112;7.356;2022-08-26T04:21:45;4.50;;;4.22;;
19907;SDS011;10116;53.112;7.356;2022-08-26T04:24:14;4.90;;;4.50;;
19907;SDS011;10116;53.112;7.356;2022-08-26T04:26:40;5.65;;;5.15;;
19907;SDS011;10116;53.112;7.356;2022-08-26T04:29:08;5.30;;;4.90;;
19907;SDS011;10116;53.112;7.356;2022-08-26T04:31:35;5.13;;;4.83;;
19907;SDS011;10116;53.112;7.356;2022-08-26T04:34:02;4.53;;;4.22;;
19907;SDS011;10116;53.112;7.356;2022-08-26T04:36:28;5.30;;;4.90;;
19907;SDS011;10116;53.112;7.356;2022-08-26T04:38:54;4.80;;;4.50;;
19907;SDS011;10116;53.112;7.356;2022-08-26T04:41:21;6.00;;;4.77;;
19907;SDS011;10116;53.112;7.356;2022-08-26T04:43:47;5.07;;;4.70;;
19907;SDS011;10116;53.112;7.356;2022-08-26T04:46:17;4.53;;;4.22;;
19907;SDS011;10116;53.112;7.356;2022-08-26T04:48:46;4.82;;;4.57;;
19907;SDS011;10116;53.112;7.356;2022-08-26T04:51:14;5.27;;;4.80;;
19907;SDS011;10116;53.112;7.356;2022-08-26T04:53:40;4.72;;;4.43;;
19907;SDS011;10116;53.112;7.356;2022-08-26T04:56:06;5.17;;;4.87;;
19907;SDS011;10116;53.112;7.356;2022-08-26T04:58:32;5.47;;;5.00;;
19907;SDS011;10116;53.112;7.356;2022-08-26T05:00:58;5.35;;;4.95;;
19907;SDS011;10116;53.112;7.356;2022-08-26T05:03:24;4.67;;;4.37;;
19907;SDS011;10116;53.112;7.356;2022-08-26T05:05:51;5.45;;;5.00;;
19907;SDS011;10116;53.112;7.356;2022-08-26T05:08:18;4.60;;;4.25;;
19907;SDS011;10116;53.112;7.356;2022-08-26T05:10:45;5.50;;;5.10;;
19907;SDS011;10116;53.112;7.356;2022-08-26T05:13:14;4.83;;;4.53;;
19907;SDS011;10116;53.112;7.356;2022-08-26T05:15:42;5.30;;;5.00;;
19907;SDS011;10116;53.112;7.356;2022-08-26T05:18:08;5.65;;;5.15;;
19907;SDS011;10116;53.112;7.356;2022-08-26T05:20:38;5.47;;;5.00;;
19907;SDS011;10116;53.112;7.356;2022-08-26T05:23:05;5.20;;;4.77;;
19907;SDS011;10116;53.112;7.356;2022-08-26T05:25:31;5.17;;;4.87;;
19907;SDS011;10116;53.112;7.356;2022-08-26T05:28:01;5.40;;;4.90;;
19907;SDS011;10116;53.112;7.356;2022-08-26T05:30:28;5.03;;;4.65;;
19907;SDS011;10116;53.112;7.356;2022-08-26T05:32:55;5.03;;;4.63;;
19907;SDS011;10116;53.112;7.356;2022-08-26T05:35:21;5.72;;;5.22;;
19907;SDS011;10116;53.112;7.356;2022-08-26T05:37:47;5.35;;;5.00;;
19907;SDS011;10116;53.112;7.356;2022-08-26T05:40:13;5.43;;;5.03;;
19907;SDS011;10116;53.112;7.356;2022-08-26T05:42:39;5.28;;;4.93;;
19907;SDS011;10116;53.112;7.356;2022-08-26T05:45:05;5.78;;;5.15;;
19907;SDS011;10116;53.112;7.356;2022-08-26T05:47:31;4.90;;;4.50;;
19907;SDS011;10116;53.112;7.356;2022-08-26T05:49:57;5.00;;;4.60;;
19907;SDS011;10116;53.112;7.356;2022-08-26T05:52:22;5.30;;;4.95;;
19907;SDS011;10116;53.112;7.356;2022-08-26T05:54:48;5.47;;;5.07;;
19907;SDS011;10116;53.112;7.356;2022-08-26T05:57:14;4.72;;;4.32;;
19907;SDS011;10116;53.112;7.356;2022-08-26T05:59:39;5.70;;;5.30;;
19907;SDS011;10116;53.112;7.356;2022-08-26T06:02:05;4.70;;;4.50;;
19907;SDS011;10116;53.112;7.356;2022-08-26T06:04:31;5.65;;;5.15;;
19907;SDS011;10116;53.112;7.356;2022-08-26T06:06:57;5.18;;;4.78;;
19907;SDS011;10116;53.112;7.356;2022-08-26T06:09:23;5.47;;;5.00;;
19907;SDS011;10116;53.112;7.356;2022-08-26T06:11:49;5.60;;;5.20;;
19907;SDS011;10116;53.112;7.356;2022-08-26T06:14:15;5.88;;;5.25;;
19907;SDS011;10116;53.112;7.356;2022-08-26T06:16:42;6.10;;;4.82;;
19907;SDS011;10116;53.112;7.356;2022-08-26T06:19:09;5.80;;;5.30;;
19907;SDS011;10116;53.112;7.356;2022-08-26T06:21:37;6.83;;;6.23;;
19907;SDS011;10116;53.112;7.356;2022-08-26T06:24:05;6.03;;;5.50;;
19907;SDS011;10116;53.112;7.356;2022-08-26T06:26:52;6.13;;;5.53;;
19907;SDS011;10116;53.112;7.356;2022-08-26T06:29:20;6.00;;;5.50;;
19907;SDS011;10116;53.112;7.356;2022-08-26T06:31:48;7.05;;;5.47;;
19907;SDS011;10116;53.112;7.356;2022-08-26T06:34:14;6.03;;;5.43;;
19907;SDS011;10116;53.112;7.356;2022-08-26T06:36:40;5.68;;;5.28;;
19907;SDS011;10116;53.112;7.356;2022-08-26T06:39:08;5.70;;;5.25;;
19907;SDS011;10116;53.112;7.356;2022-08-26T06:41:36;5.80;;;5.30;;
19907;SDS011;10116;53.112;7.356;2022-08-26T06:44:03;6.55;;;5.50;;
19907;SDS011;10116;53.112;7.356;2022-08-26T06:46:30;6.20;;;5.70;;
19907;SDS011;10116;53.112;7.356;2022-08-26T06:48:56;5.57;;;5.07;;
19907;SDS011;10116;53.112;7.356;2022-08-26T06:51:26;5.50;;;5.07;;
19907;SDS011;10116;53.112;7.356;2022-08-26T06:53:54;5.50;;;5.10;;
19907;SDS011;10116;53.112;7.356;2022-08-26T06:56:24;5.90;;;5.50;;
19907;SDS011;10116;53.112;7.356;2022-08-26T06:58:51;6.45;;;5.90;;
19907;SDS011;10116;53.112;7.356;2022-08-26T07:01:21;6.50;;;6.00;;
19907;SDS011;10116;53.112;7.356;2022-08-26T07:03:49;5.75;;;5.25;;
19907;SDS011;10116;53.112;7.356;2022-08-26T07:06:16;5.60;;;5.20;;
19907;SDS011;10116;53.112;7.356;2022-08-26T07:08:46;5.50;;;5.10;;
19907;SDS011;10116;53.112;7.356;2022-08-26T07:11:12;5.43;;;4.93;;
19907;SDS011;10116;53.112;7.356;2022-08-26T07:13:38;5.87;;;5.13;;
19907;SDS011;10116;53.112;7.356;2022-08-26T07:16:04;5.80;;;5.30;;
19907;SDS011;10116;53.112;7.356;2022-08-26T07:18:31;6.40;;;5.90;;
19907;SDS011;10116;53.112;7.356;2022-08-26T07:20:59;6.38;;;5.78;;
19907;SDS011;10116;53.112;7.356;2022-08-26T07:23:26;6.85;;;6.18;;
19907;SDS011;10116;53.112;7.356;2022-08-26T07:25:51;6.90;;;6.20;;
19907;SDS011;10116;53.112;7.356;2022-08-26T07:28:17;6.00;;;5.60;;
19907;SDS011;10116;53.112;7.356;2022-08-26T07:30:42;6.17;;;5.67;;
19907;SDS011;10116;53.112;7.356;2022-08-26T07:33:08;5.90;;;5.40;;
19907;SDS011;10116;53.112;7.356;2022-08-26T07:35:34;6.60;;;6.00;;
19907;SDS011;10116;53.112;7.356;2022-08-26T07:37:59;6.78;;;6.18;;
19907;SDS011;10116;53.112;7.356;2022-08-26T07:40:25;7.22;;;6.63;;
19907;SDS011;10116;53.112;7.356;2022-08-26T07:42:52;8.83;;;6.47;;
19907;SDS011;10116;53.112;7.356;2022-08-26T07:45:17;7.03;;;6.30;;
19907;SDS011;10116;53.112;7.356;2022-08-26T07:47:43;6.50;;;5.90;;
19907;SDS011;10116;53.112;7.356;2022-08-26T07:50:09;7.43;;;6.20;;
19907;SDS011;10116;53.112;7.356;2022-08-26T07:52:34;6.83;;;6.13;;
19907;SDS011;10116;53.112;7.356;2022-08-26T07:55:03;7.32;;;6.47;;
19907;SDS011;10116;53.112;7.356;2022-08-26T07:57:30;6.70;;;6.20;;
19907;SDS011;10116;53.112;7.356;2022-08-26T07:59:56;7.10;;;6.50;;
19907;SDS011;10116;53.112;7.356;2022-08-26T08:02:22;7.78;;;7.07;;
19907;SDS011;10116;53.112;7.356;2022-08-26T08:04:49;7.10;;;6.50;;
19907;SDS011;10116;53.112;7.356;2022-08-26T08:07:15;6.32;;;5.82;;
19907;SDS011;10116;53.112;7.356;2022-08-26T08:09:41;6.67;;;6.03;;
19907;SDS011;10116;53.112;7.356;2022-08-26T08:12:07;6.60;;;6.00;;
19907;SDS011;10116;53.112;7.356;2022-08-26T08:14:33;7.35;;;6.75;;
19907;SDS011;10116;53.112;7.356;2022-08-26T08:17:01;7.78;;;6.97;;
19907;SDS011;10116;53.112;7.356;2022-08-26T08:19:27;7.38;;;6.68;;
19907;SDS011;10116;53.112;7.356;2022-08-26T08:21:53;7.60;;;6.90;;
19907;SDS011;10116;53.112;7.356;2022-08-26T08:24:18;7.80;;;6.97;;
19907;SDS011;10116;53.112;7.356;2022-08-26T08:26:44;7.00;;;6.30;;
19907;SDS011;10116;53.112;7.356;2022-08-26T08:29:10;9.50;;;6.82;;
19907;SDS011;10116;53.112;7.356;2022-08-26T08:31:36;9.00;;;6.13;;
19907;SDS011;10116;53.112;7.356;2022-08-26T08:34:02;9.37;;;7.27;;
19907;SDS011;10116;53.112;7.356;2022-08-26T08:36:27;6.60;;;6.00;;
19907;SDS011;10116;53.112;7.356;2022-08-26T08:38:53;7.40;;;6.70;;
19907;SDS011;10116;53.112;7.356;2022-08-26T08:43:53;7.13;;;6.53;;
19907;SDS011;10116;53.112;7.356;2022-08-26T08:46:20;7.57;;;6.80;;
19907;SDS011;10116;53.112;7.356;2022-08-26T08:48:48;7.50;;;6.43;;
19907;SDS011;10116;53.112;7.356;2022-08-26T08:53:52;8.30;;;7.17;;
19907;SDS011;10116;53.112;7.356;2022-08-26T08:56:23;7.20;;;6.60;;
19907;SDS011;10116;53.112;7.356;2022-08-26T09:07:36;7.80;;;6.95;;
19907;SDS011;10116;53.112;7.356;2022-08-26T09:12:50;6.80;;;6.20;;
19907;SDS011;10116;53.112;7.356;2022-08-26T09:15:18;7.88;;;7.05;;
19907;SDS011;10116;53.112;7.356;2022-08-26T09:23:20;6.97;;;6.33;;
19907;SDS011;10116;53.112;7.356;2022-08-26T09:25:50;7.40;;;6.70;;
19907;SDS011;10116;53.112;7.356;2022-08-26T09:28:20;6.95;;;6.32;;
19907;SDS011;10116;53.112;7.356;2022-08-26T09:30:58;6.70;;;6.20;;
19907;SDS011;10116;53.112;7.356;2022-08-26T09:33:28;9.98;;;6.47;;
19907;SDS011;10116;53.112;7.356;2022-08-26T09:36:13;7.35;;;6.72;;
19907;SDS011;10116;53.112;7.356;2022-08-26T09:38:59;7.73;;;5.80;;
19907;SDS011;10116;53.112;7.356;2022-08-26T09:41:26;7.50;;;6.93;;
19907;SDS011;10116;53.112;7.356;2022-08-26T09:44:09;8.30;;;7.40;;
19907;SDS011;10116;53.112;7.356;2022-08-26T09:47:00;7.33;;;6.63;;
19907;SDS011;10116;53.112;7.356;2022-08-26T09:49:34;7.60;;;6.67;;
19907;SDS011;10116;53.112;7.356;2022-08-26T09:52:06;6.60;;;5.95;;
19907;SDS011;10116;53.112;7.356;2022-08-26T09:54:33;6.93;;;6.33;;
19907;SDS011;10116;53.112;7.356;2022-08-26T09:57:09;7.10;;;6.50;;
19907;SDS011;10116;53.112;7.356;2022-08-26T09:59:40;8.10;;;6.78;;
19907;SDS011;10116;53.112;7.356;2022-08-26T10:02:14;6.87;;;6.27;;
19907;SDS011;10116;53.112;7.356;2022-08-26T10:04:41;9.50;;;6.63;;
19907;SDS011;10116;53.112;7.356;2022-08-26T10:07:39;6.87;;;6.20;;
19907;SDS011;10116;53.112;7.356;2022-08-26T10:10:19;6.93;;;6.43;;
19907;SDS011;10116;53.112;7.356;2022-08-26T10:13:08;10.00;;;7.27;;
19907;SDS011;10116;53.112;7.356;2022-08-26T10:15:42;7.45;;;6.50;;
19907;SDS011;10116;53.112;7.356;2022-08-26T10:18:14;6.77;;;6.17;;
19907;SDS011;10116;53.112;7.356;2022-08-26T10:20:50;7.22;;;6.63;;
19907;SDS011;10116;53.112;7.356;2022-08-26T10:23:27;7.53;;;6.82;;
19907;SDS011;10116;53.112;7.356;2022-08-26T10:25:57;6.82;;;6.13;;
19907;SDS011;10116;53.112;7.356;2022-08-26T10:28:34;6.63;;;6.07;;
19907;SDS011;10116;53.112;7.356;2022-08-26T10:33:48;7.38;;;6.60;;
19907;SDS011;10116;53.112;7.356;2022-08-26T10:36:15;7.15;;;6.45;;
19907;SDS011;10116;53.112;7.356;2022-08-26T10:39:03;7.80;;;6.95;;
19907;SDS011;10116;53.112;7.356;2022-08-26T10:41:38;7.85;;;6.35;;
19907;SDS011;10116;53.112;7.356;2022-08-26T10:44:07;7.13;;;6.33;;
19907;SDS011;10116;53.112;7.356;2022-08-26T10:46:41;7.00;;;6.30;;
19907;SDS011;10116;53.112;7.356;2022-08-26T10:49:12;6.93;;;6.20;;
19907;SDS011;10116;53.112;7.356;2022-08-26T10:51:42;7.20;;;6.47;;
19907;SDS011;10116;53.112;7.356;2022-08-26T11:00:03;9.82;;;6.78;;
19907;SDS011;10116;53.112;7.356;2022-08-26T11:02:55;10.02;;;6.35;;
19907;SDS011;10116;53.112;7.356;2022-08-26T11:05:29;7.47;;;5.93;;
19907;SDS011;10116;53.112;7.356;2022-08-26T11:10:57;11.20;;;5.95;;
19907;SDS011;10116;53.112;7.356;2022-08-26T11:13:57;7.93;;;6.88;;
19907;SDS011;10116;53.112;7.356;2022-08-26T11:16:35;6.97;;;6.30;;
19907;SDS011;10116;53.112;7.356;2022-08-26T11:19:04;11.77;;;6.60;;
19907;SDS011;10116;53.112;7.356;2022-08-26T11:21:41;9.23;;;7.10;;
19907;SDS011;10116;53.112;7.356;2022-08-26T11:27:03;6.82;;;6.10;;
19907;SDS011;10116;53.112;7.356;2022-08-26T11:32:24;7.50;;;6.25;;
19907;SDS011;10116;53.112;7.356;2022-08-26T11:35:06;7.78;;;5.63;;
19907;SDS011;10116;53.112;7.356;2022-08-26T11:37:36;7.70;;;6.43;;
19907;SDS011;10116;53.112;7.356;2022-08-26T11:40:20;6.70;;;5.68;;
19907;SDS011;10116;53.112;7.356;2022-08-26T11:42:59;8.88;;;5.78;;
19907;SDS011;10116;53.112;7.356;2022-08-26T11:45:48;6.93;;;5.83;;
19907;SDS011;10116;53.112;7.356;2022-08-26T11:48:29;8.40;;;5.83;;
19907;SDS011;10116;53.112;7.356;2022-08-26T11:51:39;6.13;;;5.57;;
19907;SDS011;10116;53.112;7.356;2022-08-26T11:53:47;5.70;;;5.28;;
19907;SDS011;10116;53.112;7.356;2022-08-26T11:56:29;7.05;;;6.35;;
19907;SDS011;10116;53.112;7.356;2022-08-26T11:58:57;6.47;;;5.75;;
19907;SDS011;10116;53.112;7.356;2022-08-26T12:01:26;6.03;;;5.43;;
19907;SDS011;10116;53.112;7.356;2022-08-26T12:03:55;6.32;;;5.72;;
19907;SDS011;10116;53.112;7.356;2022-08-26T12:06:30;6.67;;;5.30;;
19907;SDS011;10116;53.112;7.356;2022-08-26T12:09:00;6.13;;;5.53;;
19907;SDS011;10116;53.112;7.356;2022-08-26T12:11:32;6.25;;;5.45;;
19907;SDS011;10116;53.112;7.356;2022-08-26T12:14:01;6.10;;;5.30;;
19907;SDS011;10116;53.112;7.356;2022-08-26T12:16:31;6.00;;;5.40;;
19907;SDS011;10116;53.112;7.356;2022-08-26T12:21:46;6.38;;;5.10;;
19907;SDS011;10116;53.112;7.356;2022-08-26T12:24:15;5.20;;;4.70;;
19907;SDS011;10116;53.112;7.356;2022-08-26T12:26:42;7.10;;;5.00;;
19907;SDS011;10116;53.112;7.356;2022-08-26T12:29:20;5.30;;;4.80;;
19907;SDS011;10116;53.112;7.356;2022-08-26T12:31:51;5.87;;;4.83;;
19907;SDS011;10116;53.112;7.356;2022-08-26T12:34:31;8.00;;;5.60;;
19907;SDS011;10116;53.112;7.356;2022-08-26T12:36:57;5.45;;;4.65;;
19907;SDS011;10116;53.112;7.356;2022-08-26T12:39:34;5.10;;;4.60;;
19907;SDS011;10116;53.112;7.356;2022-08-26T12:42:03;5.03;;;4.53;;
19907;SDS011;10116;53.112;7.356;2022-08-26T12:50:11;6.27;;;4.83;;
19907;SDS011;10116;53.112;7.356;2022-08-26T12:53:19;4.70;;;4.20;;
19907;SDS011;10116;53.112;7.356;2022-08-26T12:55:37;4.90;;;4.50;;
19907;SDS011;10116;53.112;7.356;2022-08-26T12:58:19;5.43;;;4.30;;
19907;SDS011;10116;53.112;7.356;2022-08-26T13:06:15;4.80;;;4.17;;
19907;SDS011;10116;53.112;7.356;2022-08-26T13:13:44;4.60;;;3.63;;
19907;SDS011;10116;53.112;7.356;2022-08-26T13:16:11;4.10;;;3.70;;
19907;SDS011;10116;53.112;7.356;2022-08-26T13:18:37;5.03;;;4.10;;
19907;SDS011;10116;53.112;7.356;2022-08-26T13:21:15;5.27;;;4.13;;
19907;SDS011;10116;53.112;7.356;2022-08-26T13:23:49;5.40;;;3.80;;
19907;SDS011;10116;53.112;7.356;2022-08-26T13:26:15;5.67;;;3.87;;
19907;SDS011;10116;53.112;7.356;2022-08-26T13:28:42;4.00;;;3.70;;
19907;SDS011;10116;53.112;7.356;2022-08-26T13:31:09;5.70;;;4.38;;
19907;SDS011;10116;53.112;7.356;2022-08-26T13:33:36;4.47;;;4.03;;
19907;SDS011;10116;53.112;7.356;2022-08-26T13:36:02;4.22;;;3.83;;
19907;SDS011;10116;53.112;7.356;2022-08-26T13:38:28;4.00;;;3.33;;
19907;SDS011;10116;53.112;7.356;2022-08-26T13:40:54;4.40;;;3.05;;
19907;SDS011;10116;53.112;7.356;2022-08-26T13:43:23;4.72;;;3.80;;
19907;SDS011;10116;53.112;7.356;2022-08-26T13:45:52;3.83;;;3.47;;
19907;SDS011;10116;53.112;7.356;2022-08-26T13:48:17;4.00;;;3.60;;
19907;SDS011;10116;53.112;7.356;2022-08-26T13:50:44;3.67;;;3.38;;
19907;SDS011;10116;53.112;7.356;2022-08-26T13:53:10;4.28;;;3.50;;
19907;SDS011;10116;53.112;7.356;2022-08-26T13:55:37;3.97;;;3.10;;
19907;SDS011;10116;53.112;7.356;2022-08-26T13:58:03;3.58;;;3.28;;
19907;SDS011;10116;53.112;7.356;2022-08-26T14:00:28;3.80;;;3.05;;
19907;SDS011;10116;53.112;7.356;2022-08-26T14:02:56;3.97;;;3.20;;
19907;SDS011;10116;53.112;7.356;2022-08-26T14:05:22;3.97;;;3.40;;
19907;SDS011;10116;53.112;7.356;2022-08-26T14:07:47;3.45;;;3.25;;
19907;SDS011;10116;53.112;7.356;2022-08-26T14:10:13;3.55;;;3.08;;
19907;SDS011;10116;53.112;7.356;2022-08-26T14:12:39;3.50;;;2.67;;
19907;SDS011;10116;53.112;7.356;2022-08-26T14:15:05;3.33;;;3.03;;
19907;SDS011;10116;53.112;7.356;2022-08-26T14:17:31;3.75;;;3.08;;
19907;SDS011;10116;53.112;7.356;2022-08-26T14:19:57;3.28;;;2.97;;
19907;SDS011;10116;53.112;7.356;2022-08-26T14:22:23;4.57;;;2.70;;
19907;SDS011;10116;53.112;7.356;2022-08-26T14:24:48;2.80;;;2.60;;
19907;SDS011;10116;53.112;7.356;2022-08-26T14:27:14;3.95;;;2.80;;
19907;SDS011;10116;53.112;7.356;2022-08-26T14:29:40;3.85;;;3.33;;
19907;SDS011;10116;53.112;7.356;2022-08-26T14:32:11;3.95;;;3.47;;
19907;SDS011;10116;53.112;7.356;2022-08-26T14:34:40;3.63;;;3.00;;
19907;SDS011;10116;53.112;7.356;2022-08-26T14:37:06;3.25;;;3.05;;
19907;SDS011;10116;53.112;7.356;2022-08-26T14:39:32;3.30;;;2.97;;
19907;SDS011;10116;53.112;7.356;2022-08-26T14:41:58;3.00;;;2.80;;
19907;SDS011;10116;53.112;7.356;2022-08-26T14:44:25;3.13;;;2.95;;
19907;SDS011;10116;53.112;7.356;2022-08-26T14:46:54;3.13;;;2.83;;
19907;SDS011;10116;53.112;7.356;2022-08-26T14:49:20;3.47;;;3.15;;
19907;SDS011;10116;53.112;7.356;2022-08-26T14:51:47;3.10;;;2.88;;
19907;SDS011;10116;53.112;7.356;2022-08-26T14:54:13;3.47;;;3.00;;
19907;SDS011;10116;53.112;7.356;2022-08-26T14:59:41;2.65;;;2.38;;
19907;SDS011;10116;53.112;7.356;2022-08-26T15:02:10;3.13;;;2.83;;
19907;SDS011;10116;53.112;7.356;2022-08-26T15:04:37;2.90;;;2.70;;
19907;SDS011;10116;53.112;7.356;2022-08-26T15:07:04;2.92;;;2.67;;
19907;SDS011;10116;53.112;7.356;2022-08-26T15:09:31;2.45;;;2.33;;
19907;SDS011;10116;53.112;7.356;2022-08-26T15:11:59;2.88;;;2.65;;
19907;SDS011;10116;53.112;7.356;2022-08-26T15:14:25;2.70;;;2.50;;
19907;SDS011;10116;53.112;7.356;2022-08-26T15:16:52;3.63;;;2.85;;
19907;SDS011;10116;53.112;7.356;2022-08-26T15:19:20;3.88;;;2.50;;
19907;SDS011;10116;53.112;7.356;2022-08-26T15:21:47;3.13;;;2.30;;
19907;SDS011;10116;53.112;7.356;2022-08-26T15:24:14;2.20;;;2.10;;
19907;SDS011;10116;53.112;7.356;2022-08-26T15:26:41;2.50;;;2.30;;
19907;SDS011;10116;53.112;7.356;2022-08-26T15:29:07;2.15;;;2.03;;
19907;SDS011;10116;53.112;7.356;2022-08-26T15:31:33;2.20;;;2.10;;
19907;SDS011;10116;53.112;7.356;2022-08-26T15:34:01;3.00;;;2.30;;
19907;SDS011;10116;53.112;7.356;2022-08-26T15:36:30;2.40;;;2.22;;
19907;SDS011;10116;53.112;7.356;2022-08-26T15:38:56;3.60;;;2.40;;
19907;SDS011;10116;53.112;7.356;2022-08-26T15:41:24;2.42;;;2.28;;
19907;SDS011;10116;53.112;7.356;2022-08-26T15:43:50;2.35;;;1.92;;
19907;SDS011;10116;53.112;7.356;2022-08-26T15:46:16;2.63;;;2.42;;
19907;SDS011;10116;53.112;7.356;2022-08-26T15:48:42;2.67;;;2.25;;
19907;SDS011;10116;53.112;7.356;2022-08-26T15:51:17;2.00;;;1.90;;
19907;SDS011;10116;53.112;7.356;2022-08-26T15:53:51;2.15;;;2.00;;
19907;SDS011;10116;53.112;7.356;2022-08-26T15:56:20;2.83;;;2.63;;
19907;SDS011;10116;53.112;7.356;2022-08-26T15:58:53;2.33;;;2.13;;
19907;SDS011;10116;53.112;7.356;2022-08-26T16:01:20;2.30;;;1.93;;
19907;SDS011;10116;53.112;7.356;2022-08-26T16:03:46;2.10;;;2.00;;
19907;SDS011;10116;53.112;7.356;2022-08-26T16:06:12;2.00;;;1.90;;